sensor_id;sensor_type;location;lat;lon;timestamp;pressure;altitude;pressure_sealevel;temperature;humidity
70437;BME280;57877;39.750;-104.894;2023-02-12T00:00:06;83358.69;;;9.62;24.50
70437;BME280;57877;39.750;-104.894;2023-02-12T00:02:30;83361.88;;;9.05;24.82
70437;BME280;57877;39.750;-104.894;2023-02-12T00:04:56;83361.06;;;9.34;24.70
70437;BME280;57877;39.750;-104.894;2023-02-12T00:07:22;83362.35;;;8.27;26.00
70437;BME280;57877;39.750;-104.894;2023-02-12T00:09:48;83360.66;;;7.67;26.80
70437;BME280;57877;39.750;-104.894;2023-02-12T00:12:14;83366.01;;;8.15;26.12
70437;BME280;57877;39.750;-104.894;2023-02-12T00:14:40;83369.87;;;7.89;26.21
70437;BME280;57877;39.750;-104.894;2023-02-12T00:17:06;83367.93;;;7.68;26.24
70437;BME280;57877;39.750;-104.894;2023-02-12T00:19:32;83367.73;;;8.59;25.56
70437;BME280;57877;39.750;-104.894;2023-02-12T00:21:58;83372.49;;;8.47;25.33
70437;BME280;57877;39.750;-104.894;2023-02-12T00:24:24;83379.59;;;8.15;25.56
70437;BME280;57877;39.750;-104.894;2023-02-12T00:26:50;83381.28;;;7.35;26.25
70437;BME280;57877;39.750;-104.894;2023-02-12T00:29:16;83382.39;;;7.64;26.71
70437;BME280;57877;39.750;-104.894;2023-02-12T00:31:42;83381.19;;;8.52;25.76
70437;BME280;57877;39.750;-104.894;2023-02-12T00:34:09;83379.52;;;7.78;26.34
70437;BME280;57877;39.750;-104.894;2023-02-12T00:36:34;83378.30;;;8.19;25.87
70437;BME280;57877;39.750;-104.894;2023-02-12T00:39:00;83381.21;;;7.74;26.29
70437;BME280;57877;39.750;-104.894;2023-02-12T00:41:26;83377.93;;;7.17;27.33
70437;BME280;57877;39.750;-104.894;2023-02-12T00:43:52;83381.23;;;7.08;27.29
70437;BME280;57877;39.750;-104.894;2023-02-12T00:46:18;83383.22;;;7.22;27.56
70437;BME280;57877;39.750;-104.894;2023-02-12T00:48:44;83383.85;;;6.98;27.81
70437;BME280;57877;39.750;-104.894;2023-02-12T00:51:11;83383.26;;;7.24;27.52
70437;BME280;57877;39.750;-104.894;2023-02-12T00:53:37;83389.60;;;7.62;27.18
70437;BME280;57877;39.750;-104.894;2023-02-12T00:56:03;83387.92;;;7.10;27.65
70437;BME280;57877;39.750;-104.894;2023-02-12T00:58:28;83387.70;;;7.69;27.68
70437;BME280;57877;39.750;-104.894;2023-02-12T01:00:54;83387.89;;;7.31;27.54
70437;BME280;57877;39.750;-104.894;2023-02-12T01:03:20;83390.38;;;7.22;27.76
70437;BME280;57877;39.750;-104.894;2023-02-12T01:05:47;83387.01;;;6.83;28.22
70437;BME280;57877;39.750;-104.894;2023-02-12T01:08:13;83386.60;;;6.94;28.68
70437;BME280;57877;39.750;-104.894;2023-02-12T01:10:37;83385.05;;;6.92;28.39
70437;BME280;57877;39.750;-104.894;2023-02-12T01:13:03;83388.58;;;7.32;28.31
70437;BME280;57877;39.750;-104.894;2023-02-12T01:15:29;83387.15;;;6.68;28.77
70437;BME280;57877;39.750;-104.894;2023-02-12T01:17:55;83387.35;;;6.92;28.79
70437;BME280;57877;39.750;-104.894;2023-02-12T01:20:23;83387.74;;;6.73;29.07
70437;BME280;57877;39.750;-104.894;2023-02-12T01:22:47;83392.64;;;6.25;29.78
70437;BME280;57877;39.750;-104.894;2023-02-12T01:25:13;83394.82;;;6.61;29.47
70437;BME280;57877;39.750;-104.894;2023-02-12T01:27:39;83392.69;;;6.97;29.07
70437;BME280;57877;39.750;-104.894;2023-02-12T01:30:08;83397.76;;;7.09;28.97
70437;BME280;57877;39.750;-104.894;2023-02-12T01:32:30;83399.74;;;6.91;28.86
70437;BME280;57877;39.750;-104.894;2023-02-12T01:34:55;83401.97;;;7.08;29.06
70437;BME280;57877;39.750;-104.894;2023-02-12T01:37:22;83405.33;;;7.12;29.02
70437;BME280;57877;39.750;-104.894;2023-02-12T01:39:47;83404.88;;;6.72;29.20
70437;BME280;57877;39.750;-104.894;2023-02-12T01:42:14;83396.48;;;6.98;28.81
70437;BME280;57877;39.750;-104.894;2023-02-12T01:44:43;83392.94;;;7.33;28.71
70437;BME280;57877;39.750;-104.894;2023-02-12T01:47:06;83392.11;;;7.13;28.54
70437;BME280;57877;39.750;-104.894;2023-02-12T01:49:35;83390.38;;;7.40;28.57
70437;BME280;57877;39.750;-104.894;2023-02-12T01:52:00;83388.01;;;7.05;28.69
70437;BME280;57877;39.750;-104.894;2023-02-12T01:54:23;83384.95;;;7.23;28.71
70437;BME280;57877;39.750;-104.894;2023-02-12T01:56:48;83388.77;;;6.77;28.68
70437;BME280;57877;39.750;-104.894;2023-02-12T01:59:14;83393.33;;;7.21;28.74
70437;BME280;57877;39.750;-104.894;2023-02-12T02:01:39;83396.58;;;6.70;29.09
70437;BME280;57877;39.750;-104.894;2023-02-12T02:04:09;83408.62;;;6.50;29.65
70437;BME280;57877;39.750;-104.894;2023-02-12T02:06:35;83414.46;;;6.38;29.85
70437;BME280;57877;39.750;-104.894;2023-02-12T02:08:58;83419.73;;;6.10;30.15
70437;BME280;57877;39.750;-104.894;2023-02-12T02:11:24;83419.43;;;6.00;30.87
70437;BME280;57877;39.750;-104.894;2023-02-12T02:13:50;83423.99;;;6.38;30.48
70437;BME280;57877;39.750;-104.894;2023-02-12T02:16:21;83427.08;;;6.22;30.05
70437;BME280;57877;39.750;-104.894;2023-02-12T02:18:46;83430.22;;;6.03;30.27
70437;BME280;57877;39.750;-104.894;2023-02-12T02:26:11;83430.29;;;6.17;29.80
70437;BME280;57877;39.750;-104.894;2023-02-12T02:30:56;83422.29;;;6.36;29.54
70437;BME280;57877;39.750;-104.894;2023-02-12T02:33:28;83419.39;;;6.11;29.46
70437;BME280;57877;39.750;-104.894;2023-02-12T02:35:47;83419.83;;;6.33;29.48
70437;BME280;57877;39.750;-104.894;2023-02-12T02:38:19;83419.28;;;6.51;29.63
70437;BME280;57877;39.750;-104.894;2023-02-12T02:40:40;83421.58;;;6.24;29.69
70437;BME280;57877;39.750;-104.894;2023-02-12T02:43:05;83424.08;;;6.13;29.91
70437;BME280;57877;39.750;-104.894;2023-02-12T02:45:28;83421.86;;;6.05;29.99
70437;BME280;57877;39.750;-104.894;2023-02-12T02:47:55;83420.76;;;6.09;29.98
70437;BME280;57877;39.750;-104.894;2023-02-12T02:50:20;83423.11;;;5.89;30.01
70437;BME280;57877;39.750;-104.894;2023-02-12T02:52:47;83420.67;;;5.71;29.86
70437;BME280;57877;39.750;-104.894;2023-02-12T02:55:11;83418.62;;;5.66;30.16
70437;BME280;57877;39.750;-104.894;2023-02-12T02:57:40;83416.85;;;5.91;30.19
70437;BME280;57877;39.750;-104.894;2023-02-12T03:00:05;83413.16;;;5.77;30.34
70437;BME280;57877;39.750;-104.894;2023-02-12T03:02:28;83409.52;;;5.72;30.24
70437;BME280;57877;39.750;-104.894;2023-02-12T03:04:56;83411.96;;;5.35;30.55
70437;BME280;57877;39.750;-104.894;2023-02-12T03:07:20;83408.55;;;5.88;30.93
70437;BME280;57877;39.750;-104.894;2023-02-12T03:09:46;83410.15;;;5.61;30.44
70437;BME280;57877;39.750;-104.894;2023-02-12T03:12:13;83407.75;;;5.61;30.23
70437;BME280;57877;39.750;-104.894;2023-02-12T03:14:38;83409.34;;;5.72;30.16
70437;BME280;57877;39.750;-104.894;2023-02-12T03:17:05;83405.50;;;5.59;30.47
70437;BME280;57877;39.750;-104.894;2023-02-12T03:19:30;83398.34;;;5.76;30.22
70437;BME280;57877;39.750;-104.894;2023-02-12T03:21:57;83401.60;;;5.72;30.38
70437;BME280;57877;39.750;-104.894;2023-02-12T03:24:23;83400.05;;;5.66;30.39
70437;BME280;57877;39.750;-104.894;2023-02-12T03:26:48;83402.54;;;5.71;30.31
70437;BME280;57877;39.750;-104.894;2023-02-12T03:29:11;83409.94;;;5.49;30.23
70437;BME280;57877;39.750;-104.894;2023-02-12T03:31:45;83413.03;;;5.40;29.99
70437;BME280;57877;39.750;-104.894;2023-02-12T03:34:10;83412.92;;;5.68;29.71
70437;BME280;57877;39.750;-104.894;2023-02-12T03:36:34;83408.13;;;5.47;29.61
70437;BME280;57877;39.750;-104.894;2023-02-12T03:38:57;83407.87;;;5.79;29.60
70437;BME280;57877;39.750;-104.894;2023-02-12T03:41:24;83411.17;;;5.58;29.59
70437;BME280;57877;39.750;-104.894;2023-02-12T03:43:49;83412.47;;;5.56;29.72
70437;BME280;57877;39.750;-104.894;2023-02-12T03:46:18;83407.97;;;5.30;30.69
70437;BME280;57877;39.750;-104.894;2023-02-12T03:48:44;83404.28;;;5.36;30.31
70437;BME280;57877;39.750;-104.894;2023-02-12T03:51:12;83408.33;;;5.04;30.60
70437;BME280;57877;39.750;-104.894;2023-02-12T03:53:32;83417.20;;;4.53;31.67
70437;BME280;57877;39.750;-104.894;2023-02-12T03:56:01;83411.38;;;4.40;31.99
70437;BME280;57877;39.750;-104.894;2023-02-12T03:58:27;83404.34;;;4.81;31.76
70437;BME280;57877;39.750;-104.894;2023-02-12T04:00:50;83401.79;;;4.59;32.05
70437;BME280;57877;39.750;-104.894;2023-02-12T04:03:15;83404.47;;;4.89;31.75
70437;BME280;57877;39.750;-104.894;2023-02-12T04:05:41;83406.84;;;5.03;31.72
70437;BME280;57877;39.750;-104.894;2023-02-12T04:08:09;83403.92;;;4.75;31.76
70437;BME280;57877;39.750;-104.894;2023-02-12T04:10:41;83405.75;;;4.53;32.12
70437;BME280;57877;39.750;-104.894;2023-02-12T04:13:08;83406.12;;;4.23;32.68
70437;BME280;57877;39.750;-104.894;2023-02-12T04:15:35;83406.48;;;4.35;32.65
70437;BME280;57877;39.750;-104.894;2023-02-12T04:17:58;83408.17;;;4.52;32.35
70437;BME280;57877;39.750;-104.894;2023-02-12T04:20:25;83403.31;;;4.39;32.32
70437;BME280;57877;39.750;-104.894;2023-02-12T04:22:52;83401.03;;;4.22;32.21
70437;BME280;57877;39.750;-104.894;2023-02-12T04:25:16;83396.68;;;4.35;32.01
70437;BME280;57877;39.750;-104.894;2023-02-12T04:27:40;83396.54;;;4.71;31.89
70437;BME280;57877;39.750;-104.894;2023-02-12T04:30:05;83398.28;;;4.72;32.09
70437;BME280;57877;39.750;-104.894;2023-02-12T04:32:30;83397.55;;;4.67;31.83
70437;BME280;57877;39.750;-104.894;2023-02-12T04:34:56;83393.32;;;4.68;31.61
70437;BME280;57877;39.750;-104.894;2023-02-12T04:37:19;83390.02;;;4.69;31.71
70437;BME280;57877;39.750;-104.894;2023-02-12T04:39:44;83390.52;;;4.66;31.94
70437;BME280;57877;39.750;-104.894;2023-02-12T04:42:10;83389.13;;;4.65;31.91
70437;BME280;57877;39.750;-104.894;2023-02-12T04:44:39;83388.96;;;4.13;32.20
70437;BME280;57877;39.750;-104.894;2023-02-12T04:47:02;83389.54;;;4.67;31.89
70437;BME280;57877;39.750;-104.894;2023-02-12T04:49:28;83387.45;;;4.55;31.94
70437;BME280;57877;39.750;-104.894;2023-02-12T04:51:54;83382.65;;;4.54;31.93
70437;BME280;57877;39.750;-104.894;2023-02-12T04:54:21;83382.05;;;4.28;31.60
70437;BME280;57877;39.750;-104.894;2023-02-12T04:56:46;83388.88;;;4.90;31.48
70437;BME280;57877;39.750;-104.894;2023-02-12T04:59:12;83392.49;;;4.21;31.99
70437;BME280;57877;39.750;-104.894;2023-02-12T05:01:38;83396.22;;;4.30;32.16
70437;BME280;57877;39.750;-104.894;2023-02-12T05:04:04;83401.01;;;4.39;32.04
70437;BME280;57877;39.750;-104.894;2023-02-12T05:06:28;83406.39;;;4.30;32.10
70437;BME280;57877;39.750;-104.894;2023-02-12T05:08:53;83411.93;;;4.31;32.11
70437;BME280;57877;39.750;-104.894;2023-02-12T05:11:19;83410.89;;;4.60;31.77
70437;BME280;57877;39.750;-104.894;2023-02-12T05:13:46;83409.46;;;4.68;31.60
70437;BME280;57877;39.750;-104.894;2023-02-12T05:16:09;83410.82;;;4.86;31.42
70437;BME280;57877;39.750;-104.894;2023-02-12T05:18:34;83411.29;;;4.95;31.53
70437;BME280;57877;39.750;-104.894;2023-02-12T05:21:00;83415.22;;;4.63;31.58
70437;BME280;57877;39.750;-104.894;2023-02-12T05:23:26;83418.35;;;4.27;31.88
70437;BME280;57877;39.750;-104.894;2023-02-12T05:25:49;83418.84;;;3.86;32.51
70437;BME280;57877;39.750;-104.894;2023-02-12T05:28:15;83418.50;;;3.83;32.01
70437;BME280;57877;39.750;-104.894;2023-02-12T05:30:41;83420.04;;;3.93;31.78
70437;BME280;57877;39.750;-104.894;2023-02-12T05:33:07;83422.36;;;3.67;32.05
70437;BME280;57877;39.750;-104.894;2023-02-12T05:35:34;83424.18;;;4.12;31.81
70437;BME280;57877;39.750;-104.894;2023-02-12T05:37:58;83428.26;;;4.09;31.57
70437;BME280;57877;39.750;-104.894;2023-02-12T05:40:23;83434.85;;;3.97;31.54
70437;BME280;57877;39.750;-104.894;2023-02-12T05:42:48;83434.18;;;4.12;31.36
70437;BME280;57877;39.750;-104.894;2023-02-12T05:45:13;83432.42;;;4.29;31.05
70437;BME280;57877;39.750;-104.894;2023-02-12T05:47:39;83428.58;;;4.58;30.75
70437;BME280;57877;39.750;-104.894;2023-02-12T05:50:05;83426.32;;;4.78;30.47
70437;BME280;57877;39.750;-104.894;2023-02-12T05:52:29;83427.60;;;4.41;30.43
70437;BME280;57877;39.750;-104.894;2023-02-12T05:54:54;83427.20;;;4.82;30.39
70437;BME280;57877;39.750;-104.894;2023-02-12T05:57:19;83426.28;;;4.80;30.43
70437;BME280;57877;39.750;-104.894;2023-02-12T05:59:45;83429.99;;;4.46;30.39
70437;BME280;57877;39.750;-104.894;2023-02-12T06:02:10;83432.52;;;4.59;30.46
70437;BME280;57877;39.750;-104.894;2023-02-12T06:04:35;83433.98;;;4.85;30.51
70437;BME280;57877;39.750;-104.894;2023-02-12T06:07:00;83434.57;;;4.62;30.48
70437;BME280;57877;39.750;-104.894;2023-02-12T06:09:25;83431.09;;;4.70;30.86
70437;BME280;57877;39.750;-104.894;2023-02-12T06:11:50;83426.45;;;4.73;30.70
70437;BME280;57877;39.750;-104.894;2023-02-12T06:14:17;83424.40;;;4.68;30.82
70437;BME280;57877;39.750;-104.894;2023-02-12T06:16:42;83423.66;;;4.21;30.79
70437;BME280;57877;39.750;-104.894;2023-02-12T06:19:07;83423.76;;;4.60;30.90
70437;BME280;57877;39.750;-104.894;2023-02-12T06:21:33;83429.54;;;4.24;31.16
70437;BME280;57877;39.750;-104.894;2023-02-12T06:23:58;83434.09;;;3.69;32.00
70437;BME280;57877;39.750;-104.894;2023-02-12T06:26:24;83440.40;;;3.79;32.16
70437;BME280;57877;39.750;-104.894;2023-02-12T06:28:49;83445.68;;;4.27;31.52
70437;BME280;57877;39.750;-104.894;2023-02-12T06:31:20;83442.74;;;4.25;31.36
70437;BME280;57877;39.750;-104.894;2023-02-12T06:33:41;83445.75;;;4.14;31.80
70437;BME280;57877;39.750;-104.894;2023-02-12T06:36:06;83446.17;;;4.02;32.25
70437;BME280;57877;39.750;-104.894;2023-02-12T06:38:34;83450.54;;;4.04;31.98
70437;BME280;57877;39.750;-104.894;2023-02-12T06:41:00;83456.53;;;4.16;31.80
70437;BME280;57877;39.750;-104.894;2023-02-12T06:43:22;83463.43;;;4.06;31.89
70437;BME280;57877;39.750;-104.894;2023-02-12T06:45:47;83465.83;;;3.88;32.11
70437;BME280;57877;39.750;-104.894;2023-02-12T06:48:12;83468.31;;;3.51;32.50
70437;BME280;57877;39.750;-104.894;2023-02-12T06:50:37;83469.62;;;3.23;33.42
70437;BME280;57877;39.750;-104.894;2023-02-12T06:53:02;83473.38;;;2.80;34.15
70437;BME280;57877;39.750;-104.894;2023-02-12T06:55:28;83471.53;;;3.31;33.53
70437;BME280;57877;39.750;-104.894;2023-02-12T06:57:54;83472.38;;;3.69;33.04
70437;BME280;57877;39.750;-104.894;2023-02-12T07:00:21;83473.32;;;3.79;32.95
70437;BME280;57877;39.750;-104.894;2023-02-12T07:02:49;83476.80;;;4.00;32.70
70437;BME280;57877;39.750;-104.894;2023-02-12T07:05:10;83478.23;;;4.10;32.49
70437;BME280;57877;39.750;-104.894;2023-02-12T07:07:35;83482.42;;;4.11;32.48
70437;BME280;57877;39.750;-104.894;2023-02-12T07:10:00;83482.87;;;3.84;32.48
70437;BME280;57877;39.750;-104.894;2023-02-12T07:12:26;83485.22;;;3.71;32.79
70437;BME280;57877;39.750;-104.894;2023-02-12T07:14:51;83481.95;;;3.86;32.58
70437;BME280;57877;39.750;-104.894;2023-02-12T07:17:17;83480.78;;;3.84;32.47
70437;BME280;57877;39.750;-104.894;2023-02-12T07:19:42;83483.56;;;3.84;32.55
70437;BME280;57877;39.750;-104.894;2023-02-12T07:22:08;83486.26;;;4.06;32.49
70437;BME280;57877;39.750;-104.894;2023-02-12T07:24:34;83483.20;;;3.79;32.55
70437;BME280;57877;39.750;-104.894;2023-02-12T07:27:00;83484.84;;;3.78;32.75
70437;BME280;57877;39.750;-104.894;2023-02-12T07:29:26;83485.16;;;4.12;32.93
70437;BME280;57877;39.750;-104.894;2023-02-12T07:31:52;83488.12;;;3.58;33.16
70437;BME280;57877;39.750;-104.894;2023-02-12T07:34:18;83491.54;;;4.17;33.07
70437;BME280;57877;39.750;-104.894;2023-02-12T07:36:43;83496.34;;;3.56;33.19
70437;BME280;57877;39.750;-104.894;2023-02-12T07:39:11;83499.26;;;3.88;33.15
70437;BME280;57877;39.750;-104.894;2023-02-12T07:41:35;83498.69;;;3.71;33.41
70437;BME280;57877;39.750;-104.894;2023-02-12T07:44:01;83497.80;;;3.65;33.39
70437;BME280;57877;39.750;-104.894;2023-02-12T07:46:26;83496.35;;;3.66;33.37
70437;BME280;57877;39.750;-104.894;2023-02-12T07:48:51;83495.93;;;4.02;33.39
70437;BME280;57877;39.750;-104.894;2023-02-12T07:51:16;83487.44;;;3.26;33.74
70437;BME280;57877;39.750;-104.894;2023-02-12T07:53:39;83486.07;;;3.39;34.06
70437;BME280;57877;39.750;-104.894;2023-02-12T07:56:07;83487.15;;;3.17;34.17
70437;BME280;57877;39.750;-104.894;2023-02-12T07:58:30;83491.23;;;3.16;34.83
70437;BME280;57877;39.750;-104.894;2023-02-12T08:00:55;83493.28;;;3.19;34.47
70437;BME280;57877;39.750;-104.894;2023-02-12T08:03:21;83491.26;;;3.42;34.16
70437;BME280;57877;39.750;-104.894;2023-02-12T08:05:45;83490.30;;;3.64;34.27
70437;BME280;57877;39.750;-104.894;2023-02-12T08:08:11;83494.01;;;3.11;34.42
70437;BME280;57877;39.750;-104.894;2023-02-12T08:10:37;83501.62;;;3.24;34.66
70437;BME280;57877;39.750;-104.894;2023-02-12T08:13:03;83505.66;;;3.29;34.50
70437;BME280;57877;39.750;-104.894;2023-02-12T08:15:29;83506.89;;;3.34;34.74
70437;BME280;57877;39.750;-104.894;2023-02-12T08:17:54;83505.68;;;3.53;34.17
70437;BME280;57877;39.750;-104.894;2023-02-12T08:20:20;83509.01;;;3.40;34.30
70437;BME280;57877;39.750;-104.894;2023-02-12T08:22:46;83515.60;;;2.71;35.38
70437;BME280;57877;39.750;-104.894;2023-02-12T08:25:12;83521.01;;;2.44;35.82
70437;BME280;57877;39.750;-104.894;2023-02-12T08:27:40;83521.88;;;2.56;36.53
70437;BME280;57877;39.750;-104.894;2023-02-12T08:30:04;83519.52;;;2.41;36.26
70437;BME280;57877;39.750;-104.894;2023-02-12T08:32:29;83508.35;;;2.36;35.88
70437;BME280;57877;39.750;-104.894;2023-02-12T08:34:54;83507.15;;;2.60;36.00
70437;BME280;57877;39.750;-104.894;2023-02-12T08:37:20;83516.55;;;2.42;36.06
70437;BME280;57877;39.750;-104.894;2023-02-12T08:39:45;83524.69;;;2.82;35.51
70437;BME280;57877;39.750;-104.894;2023-02-12T08:42:11;83525.16;;;2.97;35.11
70437;BME280;57877;39.750;-104.894;2023-02-12T08:44:37;83525.25;;;2.60;34.89
70437;BME280;57877;39.750;-104.894;2023-02-12T08:47:02;83530.25;;;2.83;34.89
70437;BME280;57877;39.750;-104.894;2023-02-12T08:49:28;83531.26;;;3.03;34.68
70437;BME280;57877;39.750;-104.894;2023-02-12T08:51:53;83532.81;;;3.04;34.41
70437;BME280;57877;39.750;-104.894;2023-02-12T08:54:19;83539.55;;;2.88;34.35
70437;BME280;57877;39.750;-104.894;2023-02-12T08:56:42;83557.05;;;3.02;34.16
70437;BME280;57877;39.750;-104.894;2023-02-12T08:59:09;83559.03;;;3.06;34.08
70437;BME280;57877;39.750;-104.894;2023-02-12T09:01:34;83557.07;;;3.09;33.96
70437;BME280;57877;39.750;-104.894;2023-02-12T09:03:57;83556.37;;;2.96;34.18
70437;BME280;57877;39.750;-104.894;2023-02-12T09:06:24;83553.97;;;2.69;34.70
70437;BME280;57877;39.750;-104.894;2023-02-12T09:08:47;83557.54;;;2.51;34.51
70437;BME280;57877;39.750;-104.894;2023-02-12T09:11:15;83559.49;;;2.80;34.23
70437;BME280;57877;39.750;-104.894;2023-02-12T09:13:38;83558.35;;;2.75;34.32
70437;BME280;57877;39.750;-104.894;2023-02-12T09:16:03;83558.71;;;2.62;34.12
70437;BME280;57877;39.750;-104.894;2023-02-12T09:18:28;83555.50;;;2.79;33.86
70437;BME280;57877;39.750;-104.894;2023-02-12T09:20:52;83552.30;;;2.83;33.67
70437;BME280;57877;39.750;-104.894;2023-02-12T09:23:17;83550.83;;;2.93;33.64
70437;BME280;57877;39.750;-104.894;2023-02-12T09:25:44;83544.26;;;2.86;33.61
70437;BME280;57877;39.750;-104.894;2023-02-12T09:28:08;83542.67;;;2.72;34.13
70437;BME280;57877;39.750;-104.894;2023-02-12T09:30:32;83540.15;;;2.69;33.98
70437;BME280;57877;39.750;-104.894;2023-02-12T09:32:57;83538.57;;;1.83;34.77
70437;BME280;57877;39.750;-104.894;2023-02-12T09:35:22;83538.51;;;1.80;35.13
70437;BME280;57877;39.750;-104.894;2023-02-12T09:37:47;83537.95;;;1.75;35.51
70437;BME280;57877;39.750;-104.894;2023-02-12T09:40:20;83535.51;;;2.55;34.42
70437;BME280;57877;39.750;-104.894;2023-02-12T09:42:51;83533.28;;;2.69;34.16
70437;BME280;57877;39.750;-104.894;2023-02-12T09:45:08;83529.42;;;2.33;34.98
70437;BME280;57877;39.750;-104.894;2023-02-12T09:47:32;83524.21;;;1.65;36.08
70437;BME280;57877;39.750;-104.894;2023-02-12T09:50:04;83526.23;;;2.07;35.67
70437;BME280;57877;39.750;-104.894;2023-02-12T09:52:23;83525.71;;;2.32;35.59
70437;BME280;57877;39.750;-104.894;2023-02-12T09:54:47;83526.03;;;1.95;35.34
70437;BME280;57877;39.750;-104.894;2023-02-12T09:57:18;83528.95;;;2.34;34.99
70437;BME280;57877;39.750;-104.894;2023-02-12T09:59:39;83530.40;;;2.45;34.82
70437;BME280;57877;39.750;-104.894;2023-02-12T10:02:01;83531.27;;;1.90;35.61
70437;BME280;57877;39.750;-104.894;2023-02-12T10:04:27;83536.07;;;1.94;35.16
70437;BME280;57877;39.750;-104.894;2023-02-12T10:06:59;83538.11;;;1.16;35.95
70437;BME280;57877;39.750;-104.894;2023-02-12T10:09:27;83534.61;;;1.65;36.06
70437;BME280;57877;39.750;-104.894;2023-02-12T10:11:50;83534.28;;;1.62;36.13
70437;BME280;57877;39.750;-104.894;2023-02-12T10:14:20;83536.79;;;1.71;36.31
70437;BME280;57877;39.750;-104.894;2023-02-12T10:16:41;83538.83;;;1.04;36.78
70437;BME280;57877;39.750;-104.894;2023-02-12T10:19:11;83539.37;;;1.92;36.12
70437;BME280;57877;39.750;-104.894;2023-02-12T10:21:34;83540.68;;;1.18;36.34
70437;BME280;57877;39.750;-104.894;2023-02-12T10:24:02;83534.44;;;1.83;35.59
70437;BME280;57877;39.750;-104.894;2023-02-12T10:26:20;83535.88;;;1.74;35.20
70437;BME280;57877;39.750;-104.894;2023-02-12T10:28:41;83538.93;;;2.01;35.23
70437;BME280;57877;39.750;-104.894;2023-02-12T10:31:10;83539.36;;;1.95;35.28
70437;BME280;57877;39.750;-104.894;2023-02-12T10:33:34;83540.78;;;1.75;35.17
70437;BME280;57877;39.750;-104.894;2023-02-12T10:35:59;83541.90;;;1.85;35.08
70437;BME280;57877;39.750;-104.894;2023-02-12T10:38:25;83541.35;;;1.90;34.91
70437;BME280;57877;39.750;-104.894;2023-02-12T10:40:46;83541.66;;;1.92;34.61
70437;BME280;57877;39.750;-104.894;2023-02-12T10:43:12;83543.19;;;1.60;34.89
70437;BME280;57877;39.750;-104.894;2023-02-12T10:45:38;83542.13;;;1.46;35.10
70437;BME280;57877;39.750;-104.894;2023-02-12T10:48:07;83543.98;;;1.07;35.28
70437;BME280;57877;39.750;-104.894;2023-02-12T10:50:36;83543.38;;;1.48;34.99
70437;BME280;57877;39.750;-104.894;2023-02-12T10:52:56;83541.87;;;1.63;34.58
70437;BME280;57877;39.750;-104.894;2023-02-12T10:55:24;83539.22;;;1.89;34.58
70437;BME280;57877;39.750;-104.894;2023-02-12T10:57:42;83541.79;;;2.02;34.36
70437;BME280;57877;39.750;-104.894;2023-02-12T11:00:19;83541.38;;;1.38;34.93
70437;BME280;57877;39.750;-104.894;2023-02-12T11:02:33;83542.30;;;1.27;34.95
70437;BME280;57877;39.750;-104.894;2023-02-12T11:04:58;83539.00;;;1.70;34.21
70437;BME280;57877;39.750;-104.894;2023-02-12T11:07:23;83535.61;;;1.91;34.14
70437;BME280;57877;39.750;-104.894;2023-02-12T11:09:49;83533.70;;;1.83;34.11
70437;BME280;57877;39.750;-104.894;2023-02-12T11:12:20;83531.11;;;2.09;34.01
70437;BME280;57877;39.750;-104.894;2023-02-12T11:14:37;83529.61;;;1.88;33.99
70437;BME280;57877;39.750;-104.894;2023-02-12T11:17:02;83527.81;;;1.29;34.16
70437;BME280;57877;39.750;-104.894;2023-02-12T11:19:29;83530.13;;;1.91;34.19
70437;BME280;57877;39.750;-104.894;2023-02-12T11:26:43;83525.52;;;1.75;34.58
70437;BME280;57877;39.750;-104.894;2023-02-12T11:29:17;83522.97;;;1.93;34.46
70437;BME280;57877;39.750;-104.894;2023-02-12T11:31:34;83523.62;;;1.59;34.13
70437;BME280;57877;39.750;-104.894;2023-02-12T11:34:07;83528.52;;;1.64;34.04
70437;BME280;57877;39.750;-104.894;2023-02-12T11:36:24;83526.57;;;1.59;34.01
70437;BME280;57877;39.750;-104.894;2023-02-12T11:38:50;83529.53;;;1.75;33.89
70437;BME280;57877;39.750;-104.894;2023-02-12T11:41:22;83529.24;;;1.49;34.23
70437;BME280;57877;39.750;-104.894;2023-02-12T11:43:39;83532.82;;;1.53;34.32
70437;BME280;57877;39.750;-104.894;2023-02-12T11:46:05;83540.24;;;1.04;34.78
70437;BME280;57877;39.750;-104.894;2023-02-12T11:48:33;83543.49;;;1.26;34.58
70437;BME280;57877;39.750;-104.894;2023-02-12T11:50:57;83550.21;;;1.04;34.93
70437;BME280;57877;39.750;-104.894;2023-02-12T11:53:23;83549.66;;;1.82;34.01
70437;BME280;57877;39.750;-104.894;2023-02-12T11:55:52;83547.58;;;1.30;34.28
70437;BME280;57877;39.750;-104.894;2023-02-12T11:58:16;83546.17;;;2.01;33.40
70437;BME280;57877;39.750;-104.894;2023-02-12T12:00:38;83546.08;;;1.88;33.30
70437;BME280;57877;39.750;-104.894;2023-02-12T12:03:06;83546.19;;;1.75;33.11
70437;BME280;57877;39.750;-104.894;2023-02-12T12:05:29;83544.27;;;1.65;33.46
70437;BME280;57877;39.750;-104.894;2023-02-12T12:07:54;83542.49;;;1.20;33.64
70437;BME280;57877;39.750;-104.894;2023-02-12T12:10:30;83540.92;;;1.24;33.76
70437;BME280;57877;39.750;-104.894;2023-02-12T12:12:47;83540.02;;;1.49;33.37
70437;BME280;57877;39.750;-104.894;2023-02-12T12:15:15;83540.20;;;1.61;33.51
70437;BME280;57877;39.750;-104.894;2023-02-12T12:17:40;83543.61;;;1.42;33.43
70437;BME280;57877;39.750;-104.894;2023-02-12T12:20:03;83547.13;;;2.07;33.23
70437;BME280;57877;39.750;-104.894;2023-02-12T12:22:38;83548.98;;;2.02;33.06
70437;BME280;57877;39.750;-104.894;2023-02-12T12:24:55;83545.59;;;1.88;33.18
70437;BME280;57877;39.750;-104.894;2023-02-12T12:27:22;83552.33;;;1.91;33.34
70437;BME280;57877;39.750;-104.894;2023-02-12T12:29:49;83558.71;;;1.59;33.34
70437;BME280;57877;39.750;-104.894;2023-02-12T12:32:08;83557.62;;;1.53;33.54
70437;BME280;57877;39.750;-104.894;2023-02-12T12:34:32;83553.76;;;1.20;34.17
70437;BME280;57877;39.750;-104.894;2023-02-12T12:39:30;83560.11;;;1.33;34.52
70437;BME280;57877;39.750;-104.894;2023-02-12T12:44:24;83559.67;;;1.50;33.99
70437;BME280;57877;39.750;-104.894;2023-02-12T12:46:51;83554.32;;;1.18;34.37